createdAt,value
2022-12-08T00:01:22.588Z,100490.31
2022-12-08T00:03:50.421Z,100484.44
2022-12-08T00:06:53.706Z,100482.63
2022-12-08T00:09:41.512Z,100478.06
2022-12-08T00:12:13.915Z,100490.28
2022-12-08T00:14:46.893Z,100458.34
2022-12-08T00:17:15.876Z,100475.84
2022-12-08T00:19:43.968Z,100437.69
2022-12-08T00:22:12.502Z,100473.09
2022-12-08T00:24:40.786Z,100467.94
2022-12-08T00:27:09.326Z,100471.06
2022-12-08T00:29:37.191Z,100454.19
2022-12-08T00:32:04.909Z,100450.66
2022-12-08T00:34:33.281Z,100435.72
2022-12-08T00:37:00.507Z,100447.88
2022-12-08T00:39:27.859Z,100420.63
2022-12-08T00:42:12.813Z,100448.97
2022-12-08T00:44:40.939Z,100440.22
2022-12-08T00:47:07.939Z,100440.06
2022-12-08T00:49:35.039Z,100442.84
2022-12-08T00:52:02.122Z,100440.78
2022-12-08T00:54:29.212Z,100442.38
2022-12-08T00:56:56.332Z,100430.47
2022-12-08T00:59:23.305Z,100437.88
2022-12-08T01:01:50.348Z,100428.44
2022-12-08T01:04:19.246Z,100446.31
2022-12-08T01:06:46.994Z,100441.06
2022-12-08T01:09:15.375Z,100424.84
2022-12-08T01:11:44.574Z,100409.59
2022-12-08T01:14:12.531Z,100439.38
2022-12-08T01:16:41.620Z,100440.13
2022-12-08T01:19:11.332Z,100443.09
2022-12-08T01:21:38.384Z,100431.09
2022-12-08T01:24:05.802Z,100444.56
2022-12-08T01:26:32.806Z,100447.06
2022-12-08T01:29:00.104Z,100443.34
2022-12-08T01:31:27.314Z,100438.22
2022-12-08T01:33:54.344Z,100448.06
2022-12-08T01:36:30.496Z,100446.00
2022-12-08T01:39:00.009Z,100432.28
2022-12-08T01:41:32.433Z,100437.97
2022-12-08T01:44:08.332Z,100434.41
2022-12-08T01:46:38.317Z,100415.91
2022-12-08T01:49:05.292Z,100438.13
2022-12-08T01:51:38.510Z,100434.72
2022-12-08T01:54:07.045Z,100433.50
2022-12-08T01:56:42.763Z,100429.41
2022-12-08T01:59:11.866Z,100432.75
2022-12-08T02:01:39.364Z,100435.94
2022-12-08T02:04:06.870Z,100433.16
2022-12-08T02:06:39.885Z,100437.06
2022-12-08T02:09:07.467Z,100433.66
2022-12-08T02:11:34.555Z,100429.28
2022-12-08T02:14:08.390Z,100433.97
2022-12-08T02:16:43.410Z,100433.00
2022-12-08T02:19:32.349Z,100421.31
2022-12-08T02:22:17.516Z,100424.31
2022-12-08T02:25:22.193Z,100435.38
2022-12-08T02:28:21.161Z,100428.25
2022-12-08T02:31:05.389Z,100408.53
2022-12-08T02:34:07.755Z,100426.25
2022-12-08T02:36:44.309Z,100424.38
2022-12-08T02:39:25.068Z,100418.47
2022-12-08T02:42:04.438Z,100409.34
2022-12-08T02:44:52.762Z,100407.84
2022-12-08T02:47:21.918Z,100396.06
2022-12-08T02:49:49.136Z,100398.91
2022-12-08T02:52:18.918Z,100375.28
2022-12-08T02:54:53.994Z,100392.44
2022-12-08T02:57:49.222Z,100396.22
2022-12-08T03:00:20.149Z,100391.53
2022-12-08T03:03:05.805Z,100393.63
2022-12-08T03:05:51.160Z,100389.22
2022-12-08T03:08:36.192Z,100385.09
2022-12-08T03:11:21.062Z,100376.06
2022-12-08T03:13:54.344Z,100386.66
2022-12-08T03:16:26.607Z,100365.47
2022-12-08T03:19:03.637Z,100382.50
2022-12-08T03:21:35.258Z,100383.59
2022-12-08T03:24:06.866Z,100380.03
2022-12-08T03:26:45.904Z,100366.25
2022-12-08T03:29:14.082Z,100366.25
2022-12-08T03:31:49.469Z,100366.00
2022-12-08T03:34:18.302Z,100374.72
2022-12-08T03:36:45.803Z,100349.41
2022-12-08T03:39:12.848Z,100366.75
2022-12-08T03:41:39.777Z,100362.59
2022-12-08T03:44:06.931Z,100372.38
2022-12-08T03:46:33.960Z,100360.34
2022-12-08T03:49:00.997Z,100365.66
2022-12-08T03:51:28.296Z,100345.31
2022-12-08T03:53:55.331Z,100341.66
2022-12-08T03:56:29.738Z,100358.75
2022-12-08T03:58:57.036Z,100348.03
2022-12-08T04:01:24.482Z,100343.34
2022-12-08T04:03:52.154Z,100350.09
2022-12-08T04:06:20.249Z,100351.88
2022-12-08T04:08:47.996Z,100331.84
2022-12-08T04:11:15.709Z,100345.84
2022-12-08T04:13:43.387Z,100330.91
2022-12-08T04:16:17.050Z,100336.72
2022-12-08T04:18:44.239Z,100336.41
2022-12-08T04:21:11.528Z,100328.22
2022-12-08T04:23:38.527Z,100342.31
2022-12-08T04:26:06.556Z,100337.25
2022-12-08T04:28:33.942Z,100337.16
2022-12-08T04:31:01.303Z,100332.88
2022-12-08T04:33:28.410Z,100325.31
2022-12-08T04:35:55.487Z,100329.13
2022-12-08T04:38:22.863Z,100347.56
2022-12-08T04:40:49.903Z,100340.41
2022-12-08T04:43:16.921Z,100357.00
2022-12-08T04:45:43.940Z,100336.09
2022-12-08T04:48:13.286Z,100340.81
2022-12-08T04:50:42.923Z,100347.13
2022-12-08T04:53:11.168Z,100347.38
2022-12-08T04:55:43.940Z,100347.19
2022-12-08T04:58:15.020Z,100350.94
2022-12-08T05:00:42.391Z,100344.78
2022-12-08T05:03:09.981Z,100339.88
2022-12-08T05:05:36.995Z,100347.38
2022-12-08T05:08:04.794Z,100338.94
2022-12-08T05:10:32.617Z,100343.28
2022-12-08T05:13:01.054Z,100344.78
2022-12-08T05:15:28.394Z,100345.97
2022-12-08T05:17:55.484Z,100325.03
2022-12-08T05:20:22.620Z,100338.06
2022-12-08T05:22:49.730Z,100335.06
2022-12-08T05:25:16.752Z,100334.44
2022-12-08T05:27:43.905Z,100336.97
2022-12-08T05:30:11.145Z,100336.47
2022-12-08T05:32:38.156Z,100324.16
2022-12-08T05:35:05.628Z,100317.88
2022-12-08T05:37:32.601Z,100319.25
2022-12-08T05:39:59.717Z,100328.13
2022-12-08T05:42:26.673Z,100331.22
2022-12-08T05:44:53.717Z,100332.22
2022-12-08T05:47:20.781Z,100334.34
2022-12-08T05:49:48.440Z,100330.16
2022-12-08T05:52:16.998Z,100322.06
2022-12-08T05:54:44.416Z,100327.44
2022-12-08T05:57:11.654Z,100306.47
2022-12-08T05:59:39.315Z,100333.03
2022-12-08T06:02:06.527Z,100326.31
2022-12-08T06:04:33.680Z,100330.22
2022-12-08T06:07:00.651Z,100327.44
2022-12-08T06:09:27.719Z,100324.56
2022-12-08T06:11:54.668Z,100327.53
2022-12-08T06:14:21.722Z,100334.16
2022-12-08T06:16:48.779Z,100329.41
2022-12-08T06:19:16.069Z,100336.78
2022-12-08T06:21:43.018Z,100322.88
2022-12-08T06:24:10.320Z,100330.19
2022-12-08T06:26:37.795Z,100330.44
2022-12-08T06:29:05.138Z,100326.56
2022-12-08T06:31:32.262Z,100324.16
2022-12-08T06:33:59.350Z,100337.53
2022-12-08T06:36:28.266Z,100328.59
2022-12-08T06:38:55.723Z,100331.13
2022-12-08T06:41:23.089Z,100329.03
2022-12-08T06:43:50.150Z,100320.44
2022-12-08T06:46:19.679Z,100318.19
2022-12-08T06:48:47.243Z,100316.97
2022-12-08T06:51:17.172Z,100311.47
2022-12-08T06:53:44.645Z,100306.53
2022-12-08T06:56:12.137Z,100313.13
2022-12-08T06:58:39.202Z,100317.56
2022-12-08T07:01:12.468Z,100325.41
2022-12-08T07:03:40.889Z,100323.00
2022-12-08T07:06:08.006Z,100318.84
2022-12-08T07:08:35.262Z,100301.13
2022-12-08T07:11:12.383Z,100300.59
2022-12-08T07:13:41.239Z,100311.19
2022-12-08T07:16:09.963Z,100321.88
2022-12-08T07:18:37.795Z,100314.94
2022-12-08T07:21:10.859Z,100285.97
2022-12-08T07:23:38.347Z,100307.50
2022-12-08T07:26:08.443Z,100314.94
2022-12-08T07:28:38.278Z,100306.78
2022-12-08T07:31:06.508Z,100304.94
2022-12-08T07:33:36.206Z,100311.97
2022-12-08T07:36:06.800Z,100319.88
2022-12-08T07:38:34.141Z,100308.94
2022-12-08T07:41:01.511Z,100315.72
2022-12-08T07:43:28.543Z,100284.66
2022-12-08T07:45:55.679Z,100296.03
2022-12-08T07:48:22.956Z,100313.31
2022-12-08T07:50:49.932Z,100316.69
2022-12-08T07:53:16.851Z,100301.72
2022-12-08T07:55:44.399Z,100309.97
2022-12-08T07:58:12.251Z,100298.72
2022-12-08T08:00:39.298Z,100292.28
2022-12-08T08:03:06.608Z,100291.69
2022-12-08T08:05:33.581Z,100288.44
2022-12-08T08:08:00.591Z,100284.22
2022-12-08T08:10:27.698Z,100282.94
2022-12-08T08:12:54.863Z,100281.59
2022-12-08T08:15:22.093Z,100278.56
2022-12-08T08:17:53.522Z,100256.75
2022-12-08T08:20:21.827Z,100275.31
2022-12-08T08:22:50.707Z,100276.88
2022-12-08T08:25:18.776Z,100275.53
2022-12-08T08:27:46.920Z,100273.66
2022-12-08T08:30:19.938Z,100271.75
2022-12-08T08:32:48.132Z,100255.91
2022-12-08T08:35:15.220Z,100257.63
2022-12-08T08:37:47.210Z,100259.91
2022-12-08T08:40:16.774Z,100267.13
2022-12-08T08:42:43.795Z,100263.41
2022-12-08T08:45:11.311Z,100268.59
2022-12-08T08:47:38.290Z,100266.59
2022-12-08T08:50:06.110Z,100261.00
2022-12-08T08:52:33.411Z,100256.06
2022-12-08T08:55:00.461Z,100272.59
2022-12-08T08:57:27.547Z,100268.19
2022-12-08T08:59:54.985Z,100266.50
2022-12-08T09:02:22.291Z,100269.06
2022-12-08T09:04:49.558Z,100264.50
2022-12-08T09:07:17.092Z,100255.88
2022-12-08T09:09:44.136Z,100259.84
2022-12-08T09:12:12.203Z,100269.16
2022-12-08T09:14:39.429Z,100264.72
2022-12-08T09:17:07.769Z,100266.72
2022-12-08T09:19:35.135Z,100269.75
2022-12-08T09:22:02.207Z,100278.06
2022-12-08T09:24:29.228Z,100266.69
2022-12-08T09:26:56.261Z,100261.94
2022-12-08T09:29:23.239Z,100269.78
2022-12-08T09:31:50.330Z,100270.22
2022-12-08T09:34:17.389Z,100259.00
2022-12-08T09:36:44.397Z,100246.84
2022-12-08T09:39:11.419Z,100260.50
2022-12-08T09:41:48.313Z,100251.75
2022-12-08T09:44:31.360Z,100251.75
2022-12-08T09:47:00.643Z,100253.31
2022-12-08T09:49:41.024Z,100251.91
2022-12-08T09:52:20.084Z,100243.81
2022-12-08T09:54:47.378Z,100235.53
2022-12-08T09:57:20.038Z,100236.63
2022-12-08T09:59:55.761Z,100232.84
2022-12-08T10:02:29.348Z,100231.50
2022-12-08T10:04:57.900Z,100230.41
2022-12-08T10:07:39.543Z,100230.50
2022-12-08T10:10:34.143Z,100244.03
2022-12-08T10:13:04.088Z,100234.44
2022-12-08T10:15:42.034Z,100236.53
2022-12-08T10:18:16.244Z,100233.84
2022-12-08T10:20:45.650Z,100204.47
2022-12-08T10:23:12.569Z,100236.88
2022-12-08T10:26:05.255Z,100230.47
2022-12-08T10:28:34.327Z,100235.47
2022-12-08T10:31:01.664Z,100220.28
2022-12-08T10:33:31.584Z,100233.06
2022-12-08T10:36:01.949Z,100228.78
2022-12-08T10:38:28.910Z,100235.56
2022-12-08T10:41:04.712Z,100241.69
2022-12-08T10:43:33.383Z,100236.53
2022-12-08T10:46:16.010Z,100229.59
2022-12-08T10:48:51.706Z,100251.41
2022-12-08T10:51:35.486Z,100238.06
2022-12-08T10:54:03.369Z,100231.22
2022-12-08T10:56:31.984Z,100243.00
2022-12-08T10:59:25.901Z,100247.41
2022-12-08T11:01:55.610Z,100250.75
2022-12-08T11:04:37.392Z,100224.34
2022-12-08T11:07:13.169Z,100238.09
2022-12-08T11:09:48.714Z,100242.47
2022-12-08T11:12:21.523Z,100243.69
2022-12-08T11:14:50.329Z,100243.34
2022-12-08T11:17:23.118Z,100230.69
2022-12-08T11:20:19.547Z,100232.06
2022-12-08T11:22:55.738Z,100234.28
2022-12-08T11:25:25.334Z,100211.50
2022-12-08T11:27:58.650Z,100218.66
2022-12-08T11:30:30.759Z,100225.81
2022-12-08T11:33:19.765Z,100217.69
2022-12-08T11:36:09.642Z,100216.31
2022-12-08T11:38:42.022Z,100219.09
2022-12-08T11:41:15.805Z,100216.75
2022-12-08T11:43:55.826Z,100215.47
2022-12-08T11:46:32.628Z,100210.41
2022-12-08T11:49:06.804Z,100214.66
2022-12-08T11:51:44.217Z,100214.56
2022-12-08T11:54:24.240Z,100218.88
2022-12-08T11:56:59.417Z,100221.53
2022-12-08T11:59:39.620Z,100217.69
2022-12-08T12:02:14.650Z,100210.88
2022-12-08T12:05:07.905Z,100218.28
2022-12-08T12:07:56.097Z,100215.00
2022-12-08T12:10:25.892Z,100216.41
2022-12-08T12:13:10.079Z,100216.88
2022-12-08T12:15:37.006Z,100230.03
2022-12-08T12:18:25.131Z,100235.38
2022-12-08T12:21:12.389Z,100229.13
2022-12-08T12:23:44.818Z,100239.97
2022-12-08T12:26:22.939Z,100248.00
2022-12-08T12:28:58.065Z,100237.34
2022-12-08T12:31:29.679Z,100235.56
2022-12-08T12:34:06.591Z,100239.19
2022-12-08T12:36:47.591Z,100240.59
2022-12-08T12:39:15.639Z,100241.56
2022-12-08T12:41:52.350Z,100248.16
2022-12-08T12:44:19.335Z,100243.28
2022-12-08T12:46:46.364Z,100251.34
2022-12-08T12:49:38.022Z,100245.38
2022-12-08T12:52:10.779Z,100246.81
2022-12-08T12:54:42.818Z,100256.28
2022-12-08T12:57:09.738Z,100263.00
2022-12-08T12:59:44.127Z,100254.00
2022-12-08T13:02:27.600Z,100266.78
2022-12-08T13:05:03.756Z,100263.44
2022-12-08T13:07:49.444Z,100260.59
2022-12-08T13:10:21.858Z,100272.13
2022-12-08T13:13:16.937Z,100267.69
2022-12-08T13:15:46.902Z,100265.88
2022-12-08T13:18:23.895Z,100266.78
2022-12-08T13:20:54.844Z,100263.91
2022-12-08T13:23:37.119Z,100276.06
2022-12-08T13:26:22.171Z,100280.97
2022-12-08T13:29:01.612Z,100280.75
2022-12-08T13:31:41.642Z,100276.28
2022-12-08T13:34:16.792Z,100271.75
2022-12-08T13:36:59.841Z,100252.53
2022-12-08T13:39:42.344Z,100262.59
2022-12-08T13:42:12.486Z,100258.28
2022-12-08T13:45:19.055Z,100262.44
2022-12-08T13:47:54.366Z,100263.13
2022-12-08T13:59:09.901Z,100254.00
2022-12-08T14:01:44.959Z,100259.06
2022-12-08T14:04:54.424Z,100256.03
2022-12-08T14:07:06.355Z,100256.38
2022-12-08T14:09:36.914Z,100252.81
2022-12-08T14:12:17.613Z,100251.06
2022-12-08T14:15:03.866Z,100257.34
2022-12-08T14:17:34.997Z,100249.66
2022-12-08T14:20:10.124Z,100260.53
2022-12-08T14:22:40.216Z,100265.31
2022-12-08T14:25:13.689Z,100267.78
2022-12-08T14:27:40.959Z,100262.03
2022-12-08T14:30:10.796Z,100267.22
2022-12-08T14:32:40.375Z,100268.66
2022-12-08T14:35:07.871Z,100267.38
2022-12-08T14:37:42.387Z,100285.06
2022-12-08T14:40:22.692Z,100284.34
2022-12-08T14:43:06.120Z,100294.63
2022-12-08T14:45:34.988Z,100272.78
2022-12-08T14:48:27.831Z,100289.56
2022-12-08T14:51:01.929Z,100283.94
2022-12-08T14:53:45.245Z,100295.59
2022-12-08T14:56:27.525Z,100294.47
2022-12-08T14:59:25.565Z,100297.94
2022-12-08T15:01:54.944Z,100300.28
2022-12-08T15:04:28.645Z,100298.84
2022-12-08T15:07:17.378Z,100302.34
2022-12-08T15:09:50.174Z,100303.25
2022-12-08T15:12:26.664Z,100294.28
2022-12-08T15:15:17.780Z,100306.28
2022-12-08T15:17:47.917Z,100305.44
2022-12-08T15:20:35.611Z,100314.88
2022-12-08T15:23:03.320Z,100304.56
2022-12-08T15:25:30.519Z,100313.19
2022-12-08T15:27:58.160Z,100311.13
2022-12-08T15:30:28.762Z,100319.25
2022-12-08T15:32:56.532Z,100321.97
2022-12-08T15:35:23.636Z,100330.94
2022-12-08T15:37:50.709Z,100336.69
2022-12-08T15:40:20.632Z,100338.09
2022-12-08T15:42:47.937Z,100341.84
2022-12-08T15:45:17.186Z,100345.19
2022-12-08T15:47:45.939Z,100346.50
2022-12-08T15:50:21.948Z,100346.88
2022-12-08T15:52:50.220Z,100341.00
2022-12-08T15:55:19.527Z,100348.06
2022-12-08T15:58:52.002Z,100334.03
2022-12-08T16:00:54.450Z,100336.03
2022-12-08T16:09:28.425Z,100334.91
2022-12-08T16:12:15.063Z,100336.69
2022-12-08T16:17:31.915Z,100340.41
2022-12-08T16:20:00.173Z,100334.75
2022-12-08T16:22:54.178Z,100337.22
2022-12-08T16:25:19.396Z,100337.47
2022-12-08T16:28:05.514Z,100336.41
2022-12-08T16:30:36.241Z,100333.84
2022-12-08T16:33:03.462Z,100340.28
2022-12-08T16:35:31.341Z,100329.28
2022-12-08T16:37:58.361Z,100325.59
2022-12-08T16:40:25.351Z,100334.34
2022-12-08T16:42:52.334Z,100350.63
2022-12-08T16:45:25.390Z,100346.91
2022-12-08T16:48:01.660Z,100325.81
2022-12-08T16:50:34.182Z,100338.38
2022-12-08T16:53:07.094Z,100339.28
2022-12-08T16:55:34.506Z,100340.16
2022-12-08T16:58:02.940Z,100335.63
2022-12-08T17:00:31.599Z,100337.31
2022-12-08T17:02:59.050Z,100333.44
2022-12-08T17:05:26.812Z,100345.06
2022-12-08T17:07:55.019Z,100331.53
2022-12-08T17:10:25.279Z,100334.75
2022-12-08T17:12:53.196Z,100335.91
2022-12-08T17:15:23.461Z,100342.88
2022-12-08T17:17:51.359Z,100332.44
2022-12-08T17:20:24.595Z,100339.06
2022-12-08T17:22:55.333Z,100333.91
2022-12-08T17:25:22.381Z,100331.13
2022-12-08T17:27:49.361Z,100336.03
2022-12-08T17:30:35.294Z,100333.59
2022-12-08T17:33:02.271Z,100333.47
2022-12-08T17:35:29.340Z,100332.81
2022-12-08T17:37:56.340Z,100338.53
2022-12-08T17:40:26.888Z,100339.91
2022-12-08T17:42:55.318Z,100344.69
2022-12-08T17:45:22.334Z,100329.97
2022-12-08T17:47:49.297Z,100350.63
2022-12-08T17:50:16.364Z,100352.47
2022-12-08T17:52:43.331Z,100356.97
2022-12-08T17:55:10.667Z,100349.78
2022-12-08T17:57:37.671Z,100346.88
2022-12-08T18:00:05.905Z,100348.56
2022-12-08T18:02:39.107Z,100361.28
2022-12-08T18:05:06.588Z,100360.72
2022-12-08T18:07:33.532Z,100352.75
2022-12-08T18:10:00.511Z,100361.56
2022-12-08T18:12:27.507Z,100371.50
2022-12-08T18:14:54.567Z,100379.63
2022-12-08T18:17:21.699Z,100374.09
2022-12-08T18:19:48.775Z,100367.91
2022-12-08T18:22:16.138Z,100364.91
2022-12-08T18:24:44.337Z,100353.47
2022-12-08T18:27:11.386Z,100370.03
2022-12-08T18:29:38.798Z,100373.53
2022-12-08T18:32:06.419Z,100378.50
2022-12-08T18:34:34.288Z,100374.47
2022-12-08T18:37:01.422Z,100363.03
2022-12-08T18:39:31.398Z,100368.50
2022-12-08T18:42:01.359Z,100371.00
2022-12-08T18:44:28.891Z,100371.72
2022-12-08T18:46:55.911Z,100378.97
2022-12-08T18:49:22.905Z,100380.53
2022-12-08T18:51:49.871Z,100376.03
2022-12-08T18:54:16.824Z,100385.09
2022-12-08T18:56:43.799Z,100379.81
2022-12-08T18:59:12.489Z,100383.09
2022-12-08T19:01:40.476Z,100372.91
2022-12-08T19:04:27.820Z,100373.16
2022-12-08T19:06:56.106Z,100372.56
2022-12-08T19:09:24.567Z,100369.22
2022-12-08T19:11:51.636Z,100377.53
2022-12-08T19:14:24.030Z,100376.28
2022-12-08T19:16:54.464Z,100383.44
2022-12-08T19:19:21.662Z,100383.63
2022-12-08T19:21:48.702Z,100386.38
2022-12-08T19:24:16.129Z,100361.78
2022-12-08T19:26:43.771Z,100375.56
2022-12-08T19:29:11.610Z,100371.41
2022-12-08T19:31:40.725Z,100374.84
2022-12-08T19:34:09.355Z,100379.09
2022-12-08T19:36:42.324Z,100370.09
2022-12-08T19:39:36.657Z,100379.13
2022-12-08T19:42:24.591Z,100376.28
2022-12-08T19:44:54.678Z,100386.38
2022-12-08T19:47:24.086Z,100374.22
2022-12-08T19:49:51.943Z,100384.72
2022-12-08T19:52:19.278Z,100386.94
2022-12-08T19:54:46.569Z,100380.75
2022-12-08T19:57:13.691Z,100389.78
2022-12-08T19:59:40.735Z,100384.84
2022-12-08T20:02:07.909Z,100390.03
2022-12-08T20:04:35.057Z,100373.66
2022-12-08T20:07:02.232Z,100392.88
2022-12-08T20:09:29.353Z,100393.06
2022-12-08T20:11:56.345Z,100384.00
2022-12-08T20:14:23.698Z,100390.19
2022-12-08T20:16:51.248Z,100373.25
2022-12-08T20:19:18.617Z,100375.69
2022-12-08T20:21:45.974Z,100381.66
2022-12-08T20:24:13.030Z,100379.97
2022-12-08T20:26:40.081Z,100383.16
2022-12-08T20:29:07.100Z,100402.88
2022-12-08T20:31:34.329Z,100385.81
2022-12-08T20:34:02.025Z,100391.28
2022-12-08T20:36:29.547Z,100391.69
2022-12-08T20:38:56.663Z,100400.91
2022-12-08T20:41:23.934Z,100401.63
2022-12-08T20:43:51.954Z,100399.69
2022-12-08T20:46:20.361Z,100393.81
2022-12-08T20:48:47.567Z,100405.81
2022-12-08T20:51:17.083Z,100395.47
2022-12-08T20:53:44.750Z,100386.66
2022-12-08T20:56:19.946Z,100391.56
2022-12-08T20:58:47.443Z,100399.81
2022-12-08T21:01:17.688Z,100392.47
2022-12-08T21:03:45.918Z,100390.81
2022-12-08T21:06:13.593Z,100394.16
2022-12-08T21:08:42.285Z,100393.25
2022-12-08T21:11:10.424Z,100387.94
2022-12-08T21:13:38.708Z,100383.41
2022-12-08T21:16:09.286Z,100390.88
2022-12-08T21:18:39.612Z,100397.16
2022-12-08T21:21:14.319Z,100398.84
2022-12-08T21:23:42.410Z,100391.16
2022-12-08T21:26:14.684Z,100385.81
2022-12-08T21:28:42.602Z,100391.09
2022-12-08T21:31:20.299Z,100392.13
2022-12-08T21:33:48.546Z,100382.50
2022-12-08T21:36:18.717Z,100372.56
2022-12-08T21:38:47.274Z,100368.50
2022-12-08T21:41:38.101Z,100377.03
2022-12-08T21:44:06.098Z,100388.75
2022-12-08T21:46:33.143Z,100396.09
2022-12-08T21:49:00.332Z,100391.72
2022-12-08T21:51:27.461Z,100379.00
2022-12-08T21:53:54.726Z,100372.41
2022-12-08T21:56:21.745Z,100387.38
2022-12-08T21:58:49.812Z,100396.78
2022-12-08T22:01:17.034Z,100400.06
2022-12-08T22:03:44.217Z,100403.00
2022-12-08T22:06:13.855Z,100398.47
2022-12-08T22:08:41.919Z,100393.50
2022-12-08T22:11:10.365Z,100405.25
2022-12-08T22:13:39.769Z,100396.59
2022-12-08T22:16:09.947Z,100389.19
2022-12-08T22:18:37.660Z,100400.66
2022-12-08T22:21:09.793Z,100395.91
2022-12-08T22:23:37.291Z,100399.41
2022-12-08T22:26:05.679Z,100400.78
2022-12-08T22:28:35.801Z,100383.88
2022-12-08T22:31:16.895Z,100409.09
2022-12-08T22:33:44.320Z,100400.59
2022-12-08T22:36:23.475Z,100408.13
2022-12-08T22:38:51.571Z,100410.03
2022-12-08T22:41:19.272Z,100408.50
2022-12-08T22:43:47.387Z,100415.47
2022-12-08T22:46:20.647Z,100404.28
2022-12-08T22:48:48.094Z,100414.91
2022-12-08T22:51:15.840Z,100423.69
2022-12-08T22:53:43.260Z,100421.59
2022-12-08T22:56:12.801Z,100424.97
2022-12-08T22:58:41.368Z,100422.81
2022-12-08T23:01:09.026Z,100426.78
2022-12-08T23:03:36.203Z,100425.13
2022-12-08T23:06:11.651Z,100426.31
2022-12-08T23:08:38.989Z,100423.34
2022-12-08T23:11:06.260Z,100410.16
2022-12-08T23:13:33.229Z,100412.38
2022-12-08T23:16:00.240Z,100424.53
2022-12-08T23:18:27.280Z,100412.44
2022-12-08T23:20:54.408Z,100416.16
2022-12-08T23:23:21.640Z,100422.03
2022-12-08T23:25:48.623Z,100406.34
2022-12-08T23:28:15.747Z,100412.25
2022-12-08T23:30:42.790Z,100418.41
2022-12-08T23:33:09.897Z,100416.16
2022-12-08T23:35:36.950Z,100420.28
2022-12-08T23:38:04.692Z,100420.50
2022-12-08T23:40:31.927Z,100413.66
2022-12-08T23:42:59.165Z,100416.38
2022-12-08T23:45:26.339Z,100418.69
2022-12-08T23:47:53.328Z,100417.00
2022-12-08T23:50:20.329Z,100429.94
2022-12-08T23:52:47.343Z,100424.97
2022-12-08T23:55:14.529Z,100417.44
2022-12-08T23:57:41.522Z,100412.25
